• Join FlightAware (Why Join?)
  • Login
  • US Flag 
07:04PM EDT


 

Airport Tracker/Info


-or-


 

Live Flight TrackerFlight Track Log ✈ FLG3661 ✈ 09-Jul-2014 ✈ KGSP - KATL

Flight Track Log - Related Links

Times and Time Zones

All times are in EDT time to prevent confusion due to time zone crossing. See the FLG3661 flight status page for this flight to view local times or setup timezone preferences in your user account.

Time Position Orientation Groundspeed Altitude Reporting Facility
EDT Latitude Longitude Course Direction KTS MPH feet Rate Location/Type
12:21PM 34.8253 -82.2981 259° West 198 228 5,400  Level Atlanta Center
12:22PM 34.8183 -82.3867 265° West 223 257 8,100 2,280 Climbing Atlanta Center
12:23PM 34.8133 -82.4778 266° West 249 287 10,000 1,320 Climbing Atlanta Center
12:24PM 34.8000 -82.5817 261° West 290 334 10,800 900 Climbing Atlanta Center
12:25PM 34.7825 -82.6958 259° West 321 369 11,800 600 Climbing Atlanta Center
12:26PM 34.7792 -82.8085 259° West  Level FlightAware Approximate
12:26PM 34.7669 -82.8150 261° West 345 397 12,000  Level Atlanta Center
12:27PM 34.7492 -82.9289 259° West 353 406 12,000  Level Atlanta Center
12:28PM 34.7336 -83.0456 261° West 358 412 12,000  Level Atlanta Center
12:29PM 34.7136 -83.1744 259° West 357 411 12,000  Level Atlanta Center
12:30PM 34.6517 -83.2636 230° Southwest 334 384 12,000  Level Atlanta Center
12:31PM 34.5769 -83.3425 221° Southwest 337 388 12,000  Level Atlanta Center
12:32PM 34.5044 -83.4186 221° Southwest 347 399 12,000  Level Atlanta Center
12:33PM 34.4358 -83.4897 221° Southwest 347 399 12,000  Level Atlanta Center
12:34PM 34.3653 -83.5606 220° Southwest 338 389 12,000  Level Atlanta Center
12:35PM 34.2925 -83.6339 220° Southwest 333 383 12,000  Level Atlanta Center
12:36PM 34.2258 -83.7022 220° Southwest 333 383 12,000  Level Atlanta Center
12:37PM 34.1531 -83.7753 220° Southwest 333 383 12,000  Level Atlanta Center
12:38PM 34.0925 -83.8381 221° Southwest 326 375 12,000 -360 Level Atlanta Center
12:39PM 34.0500 -83.8833 221° Southwest 284 327 11,400 -1,140 Descending Atlanta TRACON
12:40PM 33.9833 -83.9500 220° Southwest 272 313 10,000 -1,200 Descending Atlanta TRACON
12:41PM 33.9167 -83.9667 192° South 294 338 9,000 -720 Descending Atlanta TRACON
12:42PM 33.8333 -83.9667 180° South 292 336 8,600 -540 Descending Atlanta TRACON
12:43PM 33.7500 -83.9667 180° South 282 325 8,000 -780 Descending Atlanta TRACON
12:44PM 33.6833 -83.9833 192° South 268 308 7,100 -720 Descending Atlanta TRACON
12:45PM 33.6333 -84.0333 220° Southwest 226 260 6,600 -600 Descending Atlanta TRACON
12:46PM 33.6333 -84.1000 270° West 215 247 5,900 -900 Descending Atlanta TRACON
12:47PM 33.6333 -84.1667 270° West 218 251 4,800 -1,080 Descending Atlanta TRACON
12:48PM 33.6333 -84.2333 270° West 187 215 3,800 -1,020 Descending Atlanta TRACON
12:49PM 33.6333 -84.3000 270° West 173 199 2,900 -900 Descending Atlanta TRACON
12:50PM 33.6333 -84.3500 270° West 153 176 2,100 -720 Descending Atlanta TRACON
12:51PM 33.6333 -84.3833 270° West 122 140 1,500 -600 Descending Atlanta TRACON
12:53PM 33.6333 -84.4167 270° West  Level FlightAware Approximate
01:00PM 33.6367 -84.4279 270° West  Level Estimated